Time;durP1;ratioP1;P1;durP2;ratioP2;P2;SDS_P1;SDS_P2;PMS_P1;PMS_P2;Temp;Humidity;BMP_temperature;BMP_pressure;BME280_temperature;BME280_humidity;BME280_pressure;Samples;Min_cycle;Max_cycle;Signal;HPM_P1;HPM_P2
2022/04/10 00:00:05;;;;;;;26.38;1.60;;;2.00;99.90;;;;;;5118864;27;20107;-75
2022/04/10 00:02:31;;;;;;;;;;;2.10;99.90;;;;;;5155439;27;20054;-75
2022/04/10 00:04:57;;;;;;;12.73;2.08;;;2.10;99.90;;;;;;5118810;27;19967;-75
2022/04/10 00:07:23;;;;;;;17.23;1.38;;;2.20;99.90;;;;;;5119162;27;20102;-75
2022/04/10 00:09:48;;;;;;;22.10;2.05;;;2.20;99.90;;;;;;5154393;27;20118;-75
2022/04/10 00:12:14;;;;;;;24.35;1.35;;;2.20;99.90;;;;;;5154187;27;20042;-76
2022/04/10 00:14:40;;;;;;;17.73;1.73;;;2.10;99.90;;;;;;5154193;27;20043;-76
2022/04/10 00:17:05;;;;;;;13.75;2.45;;;1.90;99.90;;;;;;5118993;27;20051;-76
2022/04/10 00:19:32;;;;;;;28.70;2.28;;;1.90;99.90;;;;;;5118366;27;20053;-75
2022/04/10 00:21:58;;;;;;;10.85;1.02;;;1.90;99.90;;;;;;5135799;27;20043;-76
2022/04/10 00:24:25;;;;;;;25.20;2.83;;;1.90;99.90;;;;;;5135794;27;20337;-75
2022/04/10 00:26:52;;;;;;;13.98;1.52;;;1.90;99.90;;;;;;5135594;27;20050;-75
2022/04/10 00:29:18;;;;;;;22.58;1.70;;;2.00;99.90;;;;;;5134887;27;20137;-76
2022/04/10 00:31:45;;;;;;;15.00;1.45;;;1.90;99.90;;;;;;5135328;27;20482;-76
2022/04/10 00:34:11;;;;;;;14.90;1.83;;;1.90;99.90;;;;;;5153750;27;20547;-76
2022/04/10 00:36:37;;;;;;;17.45;1.60;;;1.80;99.90;;;;;;5153929;27;20043;-76
2022/04/10 00:39:03;;;;;;;15.75;1.50;;;1.70;99.90;;;;;;5154343;27;20042;-75
2022/04/10 00:41:30;;;;;;;20.00;2.07;;;1.70;99.90;;;;;;5135217;27;20050;-75
2022/04/10 00:44:07;;;;;;;14.65;1.92;;;1.70;99.90;;;;;;5135286;27;20142;-77
2022/04/10 00:46:33;;;;;;;;;;;1.60;99.90;;;;;;5154382;27;20047;-74
2022/04/10 00:48:59;;;;;;;17.38;1.77;;;1.60;99.90;;;;;;5154147;27;19937;-75
2022/04/10 00:51:43;;;;;;;17.08;1.67;;;1.60;99.90;;;;;;5153927;27;20042;-75
2022/04/10 00:54:14;;;;;;;13.10;1.75;;;1.70;99.90;;;;;;5154291;27;20118;-76
2022/04/10 00:56:41;;;;;;;17.23;1.60;;;1.70;99.90;;;;;;5135216;27;20050;-76
2022/04/10 00:59:07;;;;;;;14.68;1.70;;;1.70;99.90;;;;;;5153474;27;20486;-76
2022/04/10 01:01:34;;;;;;;20.75;1.67;;;1.70;99.90;;;;;;5153750;27;20131;-76
2022/04/10 01:03:59;;;;;;;9.15;1.80;;;1.60;99.90;;;;;;5135286;27;20046;-77
2022/04/10 01:06:25;;;;;;;16.55;1.90;;;1.60;99.90;;;;;;5153550;27;20043;-76
2022/04/10 01:08:51;;;;;;;18.70;1.85;;;1.50;99.90;;;;;;5135724;27;20047;-75
2022/04/10 01:11:17;;;;;;;15.50;1.92;;;1.60;99.90;;;;;;5122362;27;20065;-75
2022/04/10 01:13:44;;;;;;;17.05;1.65;;;1.70;99.90;;;;;;5157806;27;20136;-76
2022/04/10 01:16:10;;;;;;;;;;;1.70;99.90;;;;;;5139577;27;20097;-75
2022/04/10 01:18:36;;;;;;;16.23;2.03;;;1.70;99.90;;;;;;5157426;27;19966;-77
2022/04/10 01:21:03;;;;;;;15.70;1.95;;;1.80;99.90;;;;;;5157548;27;20047;-76
2022/04/10 01:23:30;;;;;;;13.55;1.90;;;1.80;99.90;;;;;;5138991;27;20107;-76
2022/04/10 01:25:56;;;;;;;13.10;1.77;;;1.70;99.90;;;;;;5122470;27;20046;-75
2022/04/10 01:28:21;;;;;;;16.83;1.88;;;1.80;99.90;;;;;;5121715;27;20411;-74
2022/04/10 01:30:47;;;;;;;25.95;2.00;;;1.70;99.90;;;;;;5157498;27;20051;-75
2022/04/10 01:33:13;;;;;;;22.95;1.77;;;1.60;99.90;;;;;;5138632;27;20047;-75
2022/04/10 01:35:39;;;;;;;10.50;1.33;;;1.60;99.90;;;;;;5138769;27;20053;-75
2022/04/10 01:38:06;;;;;;;17.50;2.30;;;1.60;99.90;;;;;;5138186;27;20487;-74
2022/04/10 01:40:33;;;;;;;15.10;2.28;;;1.50;99.90;;;;;;5138935;27;20474;-75
2022/04/10 01:42:59;;;;;;;15.32;1.90;;;1.50;99.90;;;;;;5157111;27;20049;-75
2022/04/10 01:45:25;;;;;;;18.73;2.00;;;1.40;99.90;;;;;;5138244;27;20410;-75
2022/04/10 01:47:51;;;;;;;19.92;2.65;;;1.40;99.90;;;;;;5138902;27;20053;-75
2022/04/10 01:50:17;;;;;;;18.27;2.00;;;1.50;99.90;;;;;;5156827;27;20046;-75
2022/04/10 01:52:43;;;;;;;20.90;2.00;;;1.40;99.90;;;;;;5138121;27;20655;-75
2022/04/10 01:55:09;;;;;;;12.52;1.70;;;1.40;99.90;;;;;;5138562;27;20137;-75
2022/04/10 01:57:35;;;;;;;9.32;1.65;;;1.30;99.90;;;;;;5138720;27;20038;-75
2022/04/10 02:00:01;;;;;;;19.10;1.75;;;1.20;99.90;;;;;;5156671;27;20041;-76
2022/04/10 02:02:26;;;;;;;10.73;2.03;;;1.20;99.90;;;;;;5156676;27;20130;-75
2022/04/10 02:04:52;;;;;;;14.88;1.90;;;1.20;99.90;;;;;;5156414;27;20489;-76
2022/04/10 02:07:18;;;;;;;18.98;2.17;;;1.20;99.90;;;;;;5137907;27;20078;-75
2022/04/10 02:09:44;;;;;;;11.98;1.48;;;1.20;99.90;;;;;;5138005;27;20118;-76
2022/04/10 02:12:10;;;;;;;25.35;1.67;;;1.10;99.90;;;;;;5156161;27;20551;-76
2022/04/10 02:14:36;;;;;;;13.15;1.90;;;1.10;99.90;;;;;;5155791;27;20050;-75
2022/04/10 02:17:02;;;;;;;16.60;2.28;;;1.10;99.90;;;;;;5156242;27;20042;-75
2022/04/10 02:19:27;;;;;;;12.10;1.90;;;1.10;99.90;;;;;;5155880;27;20045;-75
2022/04/10 02:21:55;;;;;;;12.75;1.90;;;1.00;99.90;;;;;;5154944;27;20130;-75
2022/04/10 02:24:20;;;;;;;17.38;1.77;;;1.00;99.90;;;;;;5138046;27;20095;-74
2022/04/10 02:26:46;;;;;;;32.20;1.80;;;1.00;99.90;;;;;;5137612;27;20398;-74
2022/04/10 02:29:12;;;;;;;15.73;2.95;;;1.00;99.90;;;;;;5156215;27;20077;-75
2022/04/10 02:31:37;;;;;;;24.60;2.08;;;1.10;99.90;;;;;;5120823;27;20052;-75
2022/04/10 02:34:03;;;;;;;23.10;2.75;;;1.20;99.90;;;;;;5120806;27;20115;-74
2022/04/10 02:36:29;;;;;;;14.73;1.83;;;1.30;99.90;;;;;;5156172;27;20160;-75
2022/04/10 02:38:55;;;;;;;18.25;2.03;;;1.20;99.90;;;;;;5155841;27;20060;-76
2022/04/10 02:41:20;;;;;;;15.90;2.15;;;1.30;99.90;;;;;;5120174;27;20121;-76
2022/04/10 02:43:46;;;;;;;17.48;1.80;;;1.30;99.90;;;;;;5155539;27;20122;-76
2022/04/10 02:46:12;;;;;;;17.90;2.25;;;1.30;99.90;;;;;;5156027;27;20126;-76
2022/04/10 02:48:37;;;;;;;12.32;2.30;;;1.20;99.90;;;;;;5156204;27;20043;-76
2022/04/10 02:51:03;;;;;;;21.05;2.90;;;1.20;99.90;;;;;;5137661;27;20047;-75
2022/04/10 02:53:30;;;;;;;25.45;2.72;;;1.20;99.90;;;;;;5120134;27;20046;-76
2022/04/10 02:55:55;;;;;;;17.55;1.50;;;1.20;99.90;;;;;;5137435;27;20133;-76
2022/04/10 02:58:21;;;;;;;18.35;1.90;;;1.20;99.90;;;;;;5155479;27;20074;-75
2022/04/10 03:00:48;;;;;;;22.23;2.28;;;1.20;99.90;;;;;;5155939;27;20042;-76
2022/04/10 03:03:13;;;;;;;17.80;1.53;;;1.20;99.90;;;;;;5155390;27;20054;-75
2022/04/10 03:05:39;;;;;;;20.88;2.95;;;1.30;99.90;;;;;;5136828;27;20042;-76
2022/04/10 03:08:05;;;;;;;19.08;1.48;;;1.30;99.90;;;;;;5155897;27;20129;-75
2022/04/10 03:10:31;;;;;;;18.23;1.83;;;1.30;99.90;;;;;;5155834;27;20051;-76
2022/04/10 03:12:57;;;;;;;21.20;1.52;;;1.30;99.90;;;;;;5155181;27;20043;-76
2022/04/10 03:15:23;;;;;;;15.80;1.58;;;1.30;99.90;;;;;;5155275;27;20447;-76
2022/04/10 03:17:48;;;;;;;23.98;1.73;;;1.20;99.90;;;;;;5119408;27;20446;-76
2022/04/10 03:20:15;;;;;;;13.80;1.90;;;1.20;99.90;;;;;;5119400;27;20127;-75
2022/04/10 03:22:41;;;;;;;19.90;2.17;;;1.30;99.90;;;;;;5155035;27;20046;-76
2022/04/10 03:25:07;;;;;;;14.75;1.90;;;1.30;99.90;;;;;;5155835;27;20038;-76
2022/04/10 03:27:33;;;;;;;10.30;1.87;;;1.30;99.90;;;;;;5120000;27;20080;-76
2022/04/10 03:29:59;;;;;;;12.88;1.60;;;1.40;99.90;;;;;;5136664;27;20786;-75
2022/04/10 03:32:25;;;;;;;18.77;2.15;;;1.40;99.90;;;;;;5136739;27;20051;-76
2022/04/10 03:34:50;;;;;;;19.90;3.00;;;1.50;99.90;;;;;;5136435;27;20073;-74
2022/04/10 03:37:16;;;;;;;17.52;2.00;;;1.60;99.90;;;;;;5154903;27;20118;-75
2022/04/10 03:39:42;;;;;;;12.45;2.45;;;1.70;99.90;;;;;;5154758;27;20087;-75
2022/04/10 03:42:08;;;;;;;22.50;2.22;;;1.80;99.90;;;;;;5136572;27;20390;-75
2022/04/10 03:44:34;;;;;;;23.13;2.33;;;1.90;99.90;;;;;;5155005;27;20050;-76
2022/04/10 03:47:00;;;;;;;20.45;2.00;;;2.00;99.90;;;;;;5136305;27;20046;-75
2022/04/10 03:49:25;;;;;;;14.68;1.42;;;2.00;99.90;;;;;;5154597;27;20042;-74
2022/04/10 03:51:51;;;;;;;20.65;1.80;;;2.00;99.90;;;;;;5135860;27;20043;-74
2022/04/10 03:54:17;;;;;;;14.07;1.90;;;2.00;99.90;;;;;;5154528;27;20077;-75
2022/04/10 03:56:42;;;;;;;20.05;2.13;;;2.00;99.90;;;;;;5154314;27;20046;-75
2022/04/10 03:59:08;;;;;;;22.88;2.00;;;1.90;99.90;;;;;;5154361;27;20139;-75
2022/04/10 04:01:34;;;;;;;14.30;1.88;;;1.90;99.90;;;;;;5136168;27;20150;-75
2022/04/10 04:04:00;;;;;;;13.40;2.35;;;2.10;99.90;;;;;;5154558;27;20043;-75
2022/04/10 04:06:25;;;;;;;12.23;2.00;;;2.00;99.90;;;;;;5154412;27;20057;-76
2022/04/10 04:08:51;;;;;;;18.77;2.20;;;2.10;99.90;;;;;;5154181;27;20046;-76
2022/04/10 04:11:17;;;;;;;18.40;2.10;;;2.20;99.90;;;;;;5154069;27;20078;-75
2022/04/10 04:13:43;;;;;;;19.10;1.88;;;2.30;99.90;;;;;;5153950;27;20049;-75
2022/04/10 04:16:08;;;;;;;21.27;2.47;;;2.40;99.90;;;;;;5154584;27;20129;-75
2022/04/10 04:18:35;;;;;;;11.88;1.70;;;2.50;99.90;;;;;;5154004;27;20381;-75
2022/04/10 04:21:01;;;;;;;14.80;1.97;;;2.50;99.90;;;;;;5154631;27;20065;-75
2022/04/10 04:23:29;;;;;;;14.93;1.50;;;2.50;99.90;;;;;;5118205;27;20053;-74
2022/04/10 04:25:54;;;;;;;20.70;2.38;;;2.50;99.90;;;;;;5153755;27;20494;-74
2022/04/10 04:28:20;;;;;;;12.60;1.92;;;2.50;99.90;;;;;;5153985;27;20064;-74
2022/04/10 04:30:46;;;;;;;12.60;1.50;;;2.60;99.90;;;;;;5153888;27;20451;-76
2022/04/10 04:33:12;;;;;;;24.75;2.75;;;2.60;99.90;;;;;;5135608;27;20130;-75
2022/04/10 04:35:38;;;;;;;22.27;2.40;;;2.70;99.90;;;;;;5153984;27;20143;-76
2022/04/10 04:38:03;;;;;;;20.13;1.73;;;2.70;99.90;;;;;;5136219;27;20138;-75
2022/04/10 04:40:29;;;;;;;12.70;1.95;;;2.60;99.90;;;;;;5154146;27;20042;-75
2022/04/10 04:42:55;;;;;;;14.55;2.50;;;2.60;99.90;;;;;;5153798;27;20507;-76
2022/04/10 04:45:22;;;;;;;16.77;2.28;;;2.60;99.90;;;;;;5135028;27;20082;-76
2022/04/10 04:47:48;;;;;;;11.88;2.03;;;2.50;99.90;;;;;;5154446;27;20043;-76
2022/04/10 04:50:14;;;;;;;8.25;1.40;;;2.60;99.90;;;;;;5118808;27;20058;-76
2022/04/10 04:52:40;;;;;;;13.07;1.60;;;2.60;99.90;;;;;;5154021;27;20474;-76
2022/04/10 04:55:06;;;;;;;14.88;1.90;;;2.60;99.90;;;;;;5135747;27;20054;-75
2022/04/10 04:57:32;;;;;;;14.13;1.52;;;2.60;99.90;;;;;;5135642;27;20043;-74
2022/04/10 04:59:58;;;;;;;9.32;1.33;;;2.60;99.90;;;;;;5135174;27;20702;-76
2022/04/10 05:02:24;;;;;;;9.00;1.40;;;2.60;99.90;;;;;;5135301;27;20067;-75
2022/04/10 05:04:51;;;;;;;16.17;1.65;;;2.50;99.90;;;;;;5154371;27;20050;-75
2022/04/10 05:07:16;;;;;;;14.60;1.42;;;2.40;99.90;;;;;;5154269;27;20502;-75
2022/04/10 05:09:42;;;;;;;14.98;1.60;;;2.40;99.90;;;;;;5135393;27;20075;-76
2022/04/10 05:12:09;;;;;;;13.50;1.90;;;2.40;99.90;;;;;;5118221;27;20051;-76
2022/04/10 05:14:35;;;;;;;8.15;1.58;;;2.40;99.90;;;;;;5154555;27;20046;-76
2022/04/10 05:17:00;;;;;;;10.18;1.27;;;2.50;99.90;;;;;;5153740;27;20041;-76
2022/04/10 05:19:26;;;;;;;10.13;1.48;;;2.60;99.90;;;;;;5134946;27;20035;-76
2022/04/10 05:21:52;;;;;;;7.55;1.20;;;2.80;99.90;;;;;;5153974;27;20178;-76
2022/04/10 05:24:17;;;;;;;9.73;1.00;;;3.00;99.90;;;;;;5136136;27;20043;-76
2022/04/10 05:26:43;;;;;;;7.15;0.82;;;3.20;99.90;;;;;;5117762;27;20088;-76
2022/04/10 05:29:09;;;;;;;9.75;1.40;;;3.30;99.90;;;;;;5135189;27;20047;-75
2022/04/10 05:31:35;;;;;;;6.13;0.90;;;3.40;99.90;;;;;;5153351;27;20181;-77
2022/04/10 05:34:01;;;;;;;9.57;0.85;;;3.40;99.90;;;;;;5135359;27;20085;-77
2022/04/10 05:36:26;;;;;;;8.20;1.00;;;3.50;99.90;;;;;;5153787;27;20126;-76
2022/04/10 05:38:52;;;;;;;4.95;0.82;;;3.50;99.90;;;;;;5135218;27;20043;-76
2022/04/10 05:41:18;;;;;;;5.68;0.98;;;3.60;99.90;;;;;;5135267;27;20134;-76
2022/04/10 05:43:44;;;;;;;6.60;0.80;;;3.50;99.90;;;;;;5153670;27;20050;-75
2022/04/10 05:46:09;;;;;;;9.60;1.15;;;3.40;99.90;;;;;;5118597;27;20039;-76
2022/04/10 05:48:35;;;;;;;4.35;1.23;;;3.40;99.90;;;;;;5153292;27;20043;-75
2022/04/10 05:51:01;;;;;;;5.22;0.70;;;3.40;99.90;;;;;;5117867;27;20111;-75
2022/04/10 05:53:26;;;;;;;4.22;0.63;;;3.70;99.90;;;;;;5153780;27;20131;-75
2022/04/10 05:55:52;;;;;;;9.60;1.65;;;3.70;99.90;;;;;;5120718;27;20348;-74
2022/04/10 05:58:18;;;;;;;7.80;1.23;;;3.80;99.90;;;;;;5157254;27;20550;-75
2022/04/10 06:00:44;;;;;;;10.52;1.10;;;3.80;99.90;;;;;;5138502;27;20043;-76
2022/04/10 06:03:10;;;;;;;8.55;0.98;;;3.90;99.90;;;;;;5156935;27;20042;-76
2022/04/10 06:05:35;;;;;;;3.88;0.70;;;4.00;99.90;;;;;;5138614;27;20055;-76
2022/04/10 06:08:01;;;;;;;3.95;1.05;;;3.90;99.90;;;;;;5138451;27;20328;-76
2022/04/10 06:10:27;;;;;;;5.70;0.77;;;4.00;99.90;;;;;;5121602;27;20043;-76
2022/04/10 06:12:52;;;;;;;8.85;1.00;;;4.00;99.90;;;;;;5157162;27;20042;-76
2022/04/10 06:15:21;;;;;;;7.43;0.95;;;4.00;99.90;;;;;;5157192;27;20051;-76
2022/04/10 06:17:47;;;;;;;4.43;0.52;;;4.00;99.90;;;;;;5121147;27;20049;-76
2022/04/10 06:20:13;;;;;;;3.80;0.90;;;4.00;99.90;;;;;;5138205;27;20050;-76
2022/04/10 06:22:39;;;;;;;4.07;0.50;;;3.90;99.90;;;;;;5156659;27;20043;-76
2022/04/10 06:25:05;;;;;;;7.93;0.75;;;3.80;99.90;;;;;;5137965;27;20126;-76
2022/04/10 06:27:31;;;;;;;8.43;0.93;;;3.80;99.90;;;;;;5137880;27;20038;-76
2022/04/10 06:29:57;;;;;;;7.40;0.70;;;3.80;99.90;;;;;;5137439;27;20050;-75
2022/04/10 06:32:23;;;;;;;5.32;0.68;;;3.70;99.90;;;;;;5156329;27;20050;-76
2022/04/10 06:34:48;;;;;;;5.95;0.73;;;3.80;99.90;;;;;;5137740;27;20157;-76
2022/04/10 06:37:14;;;;;;;7.20;0.80;;;3.80;99.90;;;;;;5156506;27;20086;-76
2022/04/10 06:39:40;;;;;;;5.65;0.60;;;4.00;99.90;;;;;;5156071;27;20067;-76
2022/04/10 06:42:08;;;;;;;3.28;0.60;;;4.10;99.90;;;;;;5155784;27;20039;-77
2022/04/10 06:44:33;;;;;;;;;;;4.10;99.90;;;;;;5156455;27;20050;-74
2022/04/10 06:46:59;;;;;;;6.70;0.90;;;4.10;99.90;;;;;;5137990;27;19919;-76
2022/04/10 06:49:25;;;;;;;7.85;1.10;;;4.10;99.90;;;;;;5137923;27;20415;-75
2022/04/10 06:51:50;;;;;;;11.80;1.30;;;4.10;99.90;;;;;;5155905;27;20038;-76
2022/04/10 06:54:16;;;;;;;10.75;1.02;;;4.20;99.90;;;;;;5137237;27;20089;-75
2022/04/10 06:56:42;;;;;;;7.85;1.17;;;4.20;99.90;;;;;;5155579;27;20043;-76
2022/04/10 06:59:08;;;;;;;8.98;0.85;;;4.40;99.90;;;;;;5156307;27;20054;-75
2022/04/10 07:01:34;;;;;;;10.95;0.95;;;4.40;99.90;;;;;;5137339;27;20042;-76
2022/04/10 07:04:01;;;;;;;9.75;0.63;;;4.50;99.90;;;;;;5137418;27;20104;-75
2022/04/10 07:06:26;;;;;;;9.25;1.05;;;4.70;99.90;;;;;;5155272;27;20131;-75
2022/04/10 07:08:52;;;;;;;5.40;0.98;;;4.70;99.90;;;;;;5155526;27;20126;-75
2022/04/10 07:11:18;;;;;;;8.85;1.05;;;4.80;99.90;;;;;;5136646;27;20043;-76
2022/04/10 07:13:44;;;;;;;6.82;0.73;;;4.80;99.90;;;;;;5155223;27;20043;-75
2022/04/10 07:16:09;;;;;;;10.63;0.95;;;4.90;99.90;;;;;;5155797;27;20046;-76
2022/04/10 07:18:35;;;;;;;4.82;0.80;;;5.00;99.90;;;;;;5155858;27;20386;-74
2022/04/10 07:21:01;;;;;;;13.48;1.27;;;5.10;99.90;;;;;;5137784;27;20039;-76
2022/04/10 07:23:43;;;;;;;8.88;0.90;;;5.20;99.90;;;;;;5119844;27;20069;-75
2022/04/10 07:26:14;;;;;;;5.22;1.02;;;5.30;99.90;;;;;;5155286;27;20054;-78
2022/04/10 07:28:41;;;;;;;12.45;0.88;;;5.40;99.90;;;;;;5154675;27;20578;-75
2022/04/10 07:31:10;;;;;;;8.07;0.80;;;5.40;99.90;;;;;;5155299;27;20142;-76
2022/04/10 07:33:36;;;;;;;14.25;0.88;;;5.40;99.90;;;;;;5155285;27;20047;-76
2022/04/10 07:36:03;;;;;;;7.80;0.75;;;5.50;99.90;;;;;;5136434;27;20046;-73
2022/04/10 07:38:29;;;;;;;10.98;1.17;;;5.60;99.90;;;;;;5119244;27;20129;-76
2022/04/10 07:40:54;;;;;;;7.40;1.33;;;5.80;99.90;;;;;;5155032;27;20054;-75
2022/04/10 07:43:20;;;;;;;5.55;0.90;;;5.80;99.90;;;;;;5155215;27;20054;-76
2022/04/10 07:48:30;;;;;;;10.82;0.80;;;6.20;99.90;;;;;;5154763;27;20482;-76
2022/04/10 07:50:57;;;;;;;7.38;0.70;;;6.50;99.90;;;;;;5154740;27;20094;-76
2022/04/10 07:53:23;;;;;;;11.20;0.55;;;6.80;99.90;;;;;;5136513;27;20047;-78
2022/04/10 07:55:49;;;;;;;9.25;0.80;;;6.90;99.90;;;;;;5136602;27;20046;-76
2022/04/10 07:58:15;;;;;;;16.50;1.45;;;6.90;99.90;;;;;;5119358;27;20043;-75
2022/04/10 08:00:40;;;;;;;11.27;1.08;;;6.80;99.90;;;;;;5136566;27;20058;-76
2022/04/10 08:03:06;;;;;;;10.80;0.93;;;6.80;99.90;;;;;;5118873;27;20057;-78
2022/04/10 08:05:32;;;;;;;8.90;1.00;;;6.80;99.90;;;;;;5154520;27;20047;-79
2022/04/10 08:07:58;;;;;;;14.77;1.13;;;6.80;99.90;;;;;;5136181;27;20438;-77
2022/04/10 08:10:24;;;;;;;8.90;0.70;;;6.60;99.90;;;;;;5135802;27;20042;-76
2022/04/10 08:12:50;;;;;;;8.50;1.48;;;6.60;99.90;;;;;;5136042;27;20130;-79
2022/04/10 08:15:16;;;;;;;13.30;1.30;;;6.50;99.90;;;;;;5135899;27;20470;-77
2022/04/10 08:17:42;;;;;;;9.48;0.90;;;6.50;99.90;;;;;;5135987;27;20449;-78
2022/04/10 08:20:09;;;;;;;11.50;1.50;;;6.50;99.90;;;;;;5117249;27;20091;-76
2022/04/10 08:22:39;;;;;;;10.57;0.93;;;6.40;99.90;;;;;;5118950;27;20087;-77
2022/04/10 08:25:12;;;;;;;9.43;1.10;;;6.20;99.90;;;;;;5154065;27;20085;-77
2022/04/10 08:27:38;;;;;;;12.80;1.38;;;6.20;99.90;;;;;;5154351;27;20474;-77
2022/04/10 08:30:08;;;;;;;11.75;1.20;;;6.40;99.90;;;;;;5154157;27;20394;-77
2022/04/10 08:32:42;;;;;;;14.13;1.00;;;6.50;99.90;;;;;;5154279;27;20050;-77
2022/04/10 08:35:09;;;;;;;14.05;1.00;;;6.60;99.90;;;;;;5135830;27;20050;-75
2022/04/10 08:37:39;;;;;;;14.30;1.58;;;6.80;99.90;;;;;;5153755;27;20176;-75
2022/04/10 08:40:08;;;;;;;17.45;1.52;;;7.10;99.90;;;;;;5153782;27;20039;-76
2022/04/10 08:42:34;;;;;;;11.88;1.33;;;7.20;99.90;;;;;;5117554;27;20050;-77
2022/04/10 08:45:00;;;;;;;15.88;1.00;;;7.40;99.90;;;;;;5135400;27;20383;-77
2022/04/10 08:47:29;;;;;;;19.25;1.58;;;7.50;99.90;;;;;;5118402;27;20053;-77
2022/04/10 08:49:54;;;;;;;16.65;1.17;;;7.60;99.90;;;;;;5154003;27;20042;-78
2022/04/10 08:52:21;;;;;;;7.45;1.20;;;7.80;99.90;;;;;;5153749;27;20070;-76
2022/04/10 08:54:49;;;;;;;7.53;0.88;;;8.20;99.90;;;;;;5118765;27;20078;-75
2022/04/10 08:57:15;;;;;;;7.90;1.00;;;8.50;99.90;;;;;;5154356;27;20050;-78
2022/04/10 08:59:41;;;;;;;12.60;1.00;;;8.20;99.90;;;;;;5135847;27;20049;-75
2022/04/10 09:02:08;;;;;;;7.10;1.00;;;8.30;99.90;;;;;;5154004;27;20058;-74
2022/04/10 09:04:34;;;;;;;5.00;0.93;;;8.00;99.90;;;;;;5135396;27;20043;-77
2022/04/10 09:07:08;;;;;;;13.88;1.75;;;7.80;99.90;;;;;;5153872;27;20054;-76
2022/04/10 09:09:42;;;;;;;14.10;1.40;;;7.70;99.90;;;;;;5154580;27;20039;-75
2022/04/10 09:12:09;;;;;;;12.90;1.05;;;7.40;99.90;;;;;;5154355;27;20167;-78
2022/04/10 09:14:40;;;;;;;10.73;1.67;;;7.10;99.90;;;;;;5100831;27;20043;-75
2022/04/10 09:17:10;;;;;;;12.70;1.02;;;7.20;99.90;;;;;;5135450;27;20066;-76
2022/04/10 09:19:37;;;;;;;10.27;1.20;;;7.20;99.90;;;;;;5135513;27;20080;-75
2022/04/10 09:22:26;;;;;;;16.85;1.13;;;7.30;99.90;;;;;;5136173;27;20055;-76
2022/04/10 09:25:16;;;;;;;9.00;1.13;;;7.50;99.90;;;;;;5122203;27;20043;-75
2022/04/10 09:27:45;;;;;;;8.88;0.90;;;7.90;99.90;;;;;;5134778;27;20370;-77
2022/04/10 09:30:15;;;;;;;8.98;1.13;;;8.20;99.90;;;;;;5119040;27;20487;-77
2022/04/10 09:32:43;;;;;;;13.43;1.58;;;;;;;;;;5157871;27;20077;-79
2022/04/10 09:35:11;;;;;;;22.55;1.63;;;8.20;99.90;;;;;;5138453;27;20050;-78
2022/04/10 09:38:03;;;;;;;10.10;1.15;;;7.70;99.90;;;;;;5157276;27;20053;-76
2022/04/10 09:40:32;;;;;;;14.15;1.55;;;7.10;99.90;;;;;;5157784;27;20362;-75
2022/04/10 09:43:01;;;;;;;10.52;1.20;;;7.10;99.90;;;;;;5157252;27;20057;-76
2022/04/10 09:45:29;;;;;;;8.98;0.82;;;7.30;99.90;;;;;;5138837;27;20183;-77
2022/04/10 09:47:55;;;;;;;13.93;1.05;;;7.40;99.90;;;;;;5157055;27;20125;-75
2022/04/10 09:50:33;;;;;;;12.90;1.73;;;7.60;99.90;;;;;;5139197;27;20403;-76
2022/04/10 09:53:07;;;;;;;12.50;0.80;;;8.00;99.90;;;;;;5157209;27;20046;-76
2022/04/10 09:55:40;;;;;;;8.18;0.90;;;8.20;99.90;;;;;;5157287;27;20360;-77
2022/04/10 09:58:11;;;;;;;9.15;1.40;;;8.40;99.90;;;;;;5156827;27;20036;-75
2022/04/10 10:00:47;;;;;;;18.33;1.17;;;8.50;99.90;;;;;;5157264;27;20043;-76
2022/04/10 10:03:14;;;;;;;9.63;0.93;;;8.60;99.90;;;;;;5157481;27;20051;-74
2022/04/10 10:05:40;;;;;;;6.82;1.00;;;8.60;99.90;;;;;;5156709;27;20466;-76
2022/04/10 10:08:07;;;;;;;9.07;0.65;;;8.50;99.90;;;;;;5157076;27;20082;-77
2022/04/10 10:10:35;;;;;;;17.73;1.75;;;8.40;99.90;;;;;;5156996;27;20156;-77
2022/04/10 10:13:03;;;;;;;10.25;1.73;;;8.50;99.90;;;;;;5138534;27;20065;-76
2022/04/10 10:15:29;;;;;;;11.40;1.10;;;8.60;99.90;;;;;;5138210;27;20043;-75
2022/04/10 10:17:55;;;;;;;9.82;0.85;;;8.40;99.90;;;;;;5138279;27;20042;-76
2022/04/10 10:20:22;;;;;;;12.77;1.00;;;8.30;99.90;;;;;;5156928;27;20382;-77
2022/04/10 10:22:48;;;;;;;11.50;0.98;;;8.10;99.90;;;;;;5156738;27;20050;-76
2022/04/10 10:25:33;;;;;;;9.13;0.90;;;8.00;99.90;;;;;;5120974;27;20090;-76
2022/04/10 10:28:36;;;;;;;8.65;0.55;;;8.30;99.90;;;;;;5156831;27;20054;-76
2022/04/10 10:31:40;;;;;;;16.15;1.52;;;8.70;99.90;;;;;;5157058;27;20046;-77
2022/04/10 10:34:08;;;;;;;12.23;1.45;;;9.00;99.90;;;;;;5082686;27;20551;-76
2022/04/10 10:36:35;;;;;;;11.90;0.95;;;9.00;99.90;;;;;;5137578;27;20039;-76
2022/04/10 10:39:03;;;;;;;7.27;0.77;;;9.00;99.90;;;;;;5137959;27;20385;-76
2022/04/10 10:41:29;;;;;;;8.23;0.93;;;8.60;99.90;;;;;;5120461;27;20322;-79
2022/04/10 10:43:55;;;;;;;6.00;0.93;;;8.40;99.90;;;;;;5138069;27;20046;-76
2022/04/10 10:46:34;;;;;;;8.90;0.67;;;8.40;99.90;;;;;;5156112;27;20047;-77
2022/04/10 10:49:11;;;;;;;6.72;0.60;;;8.70;99.90;;;;;;5156579;27;20061;-75
2022/04/10 10:51:40;;;;;;;11.55;1.40;;;8.70;99.90;;;;;;5138088;27;20042;-76
2022/04/10 10:54:11;;;;;;;6.53;0.50;;;8.60;99.90;;;;;;5137390;27;20050;-76
2022/04/10 10:56:40;;;;;;;10.32;1.00;;;8.70;99.90;;;;;;5138175;27;20051;-76
2022/04/10 10:59:30;;;;;;;9.60;1.10;;;8.80;99.90;;;;;;5155980;27;20488;-74
2022/04/10 11:02:10;;;;;;;8.93;0.70;;;9.00;99.90;;;;;;5138007;27;20418;-75
2022/04/10 11:04:40;;;;;;;5.60;0.57;;;8.90;99.50;;;;;;5155637;27;20047;-75
2022/04/10 11:07:16;;;;;;;11.73;0.75;;;8.70;99.90;;;;;;5137059;27;20126;-75
2022/04/10 11:10:05;;;;;;;8.80;0.45;;;8.70;99.90;;;;;;5137073;27;20039;-75
2022/04/10 11:12:35;;;;;;;7.97;0.60;;;8.70;99.90;;;;;;5136564;27;20409;-75
2022/04/10 11:15:16;;;;;;;10.80;0.90;;;8.80;99.90;;;;;;5155036;27;20497;-77
2022/04/10 11:17:41;;;;;;;12.85;1.05;;;8.80;99.90;;;;;;5122168;27;20424;-77
2022/04/10 11:20:12;;;;;;;5.75;0.77;;;8.50;99.90;;;;;;5155346;27;20038;-76
2022/04/10 11:22:53;;;;;;;7.45;1.08;;;8.30;99.90;;;;;;5137464;27;20367;-76
2022/04/10 11:25:29;;;;;;;6.45;0.50;;;8.50;99.90;;;;;;5136742;27;20194;-75
2022/04/10 11:28:03;;;;;;;8.40;0.90;;;8.70;99.90;;;;;;5155081;27;20050;-74
2022/04/10 11:30:38;;;;;;;11.48;1.15;;;9.10;99.90;;;;;;5136443;27;20066;-76
2022/04/10 11:33:09;;;;;;;8.02;0.77;;;9.50;99.90;;;;;;5119696;27;20070;-75
2022/04/10 11:35:37;;;;;;;6.35;0.60;;;9.90;99.90;;;;;;5154787;27;20126;-75
2022/04/10 11:38:08;;;;;;;5.32;0.68;;;9.80;99.90;;;;;;5155218;27;20095;-76
2022/04/10 11:40:37;;;;;;;4.95;0.70;;;9.60;99.90;;;;;;5119213;27;20135;-75
2022/04/10 11:43:05;;;;;;;10.88;0.70;;;9.40;99.90;;;;;;5136330;27;20046;-77
2022/04/10 11:45:32;;;;;;;12.43;0.68;;;9.00;99.90;;;;;;5119190;27;20062;-76
2022/04/10 11:47:59;;;;;;;7.30;0.70;;;8.80;99.90;;;;;;5155219;27;20047;-76
2022/04/10 11:50:27;;;;;;;6.43;0.85;;;8.90;99.90;;;;;;5119092;27;20446;-75
2022/04/10 11:53:10;;;;;;;7.55;0.70;;;9.30;99.90;;;;;;5154126;27;20587;-76
2022/04/10 11:55:36;;;;;;;9.90;1.02;;;9.50;99.90;;;;;;5119239;27;20047;-76
2022/04/10 11:58:16;;;;;;;6.25;0.85;;;9.60;98.80;;;;;;5155107;27;20047;-75
2022/04/10 12:00:56;;;;;;;7.10;1.10;;;9.60;98.30;;;;;;5154580;27;20089;-76
2022/04/10 12:03:28;;;;;;;7.68;0.88;;;9.80;97.30;;;;;;5136200;27;20082;-76
2022/04/10 12:05:54;;;;;;;6.85;0.52;;;9.90;99.80;;;;;;5119732;27;20050;-75
2022/04/10 12:08:21;;;;;;;7.30;0.70;;;10.20;99.90;;;;;;5135866;27;20524;-77
2022/04/10 12:10:55;;;;;;;8.48;0.63;;;10.30;97.70;;;;;;5118672;27;20504;-76
2022/04/10 12:13:21;;;;;;;9.30;0.80;;;10.30;96.20;;;;;;5135728;27;20438;-77
2022/04/10 12:15:58;;;;;;;7.65;0.52;;;10.60;99.90;;;;;;5154579;27;20054;-76
2022/04/10 12:18:23;;;;;;;8.40;0.98;;;10.70;94.60;;;;;;5154257;27;20452;-75
2022/04/10 12:21:02;;;;;;;3.60;0.50;;;10.50;97.60;;;;;;5135716;27;20074;-77
2022/04/10 12:23:28;;;;;;;8.80;1.20;;;10.60;99.90;;;;;;5154711;27;20056;-81
2022/04/10 12:25:56;;;;;;;8.70;0.77;;;10.60;99.90;;;;;;5135507;27;20429;-78
2022/04/10 12:28:22;;;;;;;8.10;1.00;;;10.60;99.90;;;;;;5154078;27;20039;-77
2022/04/10 12:30:48;;;;;;;5.63;0.68;;;10.70;99.00;;;;;;5153603;27;20059;-78
2022/04/10 12:33:15;;;;;;;9.07;0.97;;;10.90;99.90;;;;;;5135456;27;20050;-77
2022/04/10 12:35:43;;;;;;;8.27;0.73;;;10.80;95.90;;;;;;5135667;27;20051;-76
2022/04/10 12:38:12;;;;;;;7.03;0.63;;;10.80;97.50;;;;;;5154146;27;20379;-78
2022/04/10 12:40:39;;;;;;;8.55;0.68;;;11.40;99.90;;;;;;5134908;27;20103;-77
2022/04/10 12:43:05;;;;;;;;;;;11.40;97.00;;;;;;5101554;27;20051;-76
2022/04/10 12:45:36;;;;;;;9.60;0.73;;;11.40;93.40;;;;;;5117796;27;20362;-77
2022/04/10 12:48:22;;;;;;;10.55;1.10;;;11.40;93.90;;;;;;5136107;27;20129;-76
2022/04/10 12:51:09;;;;;;;11.98;0.82;;;11.40;98.20;;;;;;5135954;27;20077;-76
2022/04/10 12:53:36;;;;;;;5.38;0.70;;;10.80;91.10;;;;;;5118179;27;20047;-75
2022/04/10 12:56:17;;;;;;;5.97;0.50;;;10.80;92.60;;;;;;5135699;27;20043;-76
2022/04/10 12:58:47;;;;;;;9.70;0.60;;;10.80;93.20;;;;;;5117882;27;20042;-76